Time;durP1;ratioP1;P1;durP2;ratioP2;P2;SDS_P1;SDS_P2;PMS_P1;PMS_P2;Temp;Humidity;BMP_temperature;BMP_pressure;BME280_temperature;BME280_humidity;BME280_pressure;Samples;Min_cycle;Max_cycle;Signal;HPM_P1;HPM_P2
2022/09/01 00:02:26;;;;;;;10.35;8.52;;;;;;;;;;5061765;28;20394;-68
2022/09/01 00:04:54;;;;;;;15.10;8.88;;;;;;;;;;5063857;28;20562;-68
2022/09/01 00:07:21;;;;;;;9.85;8.85;;;;;;;;;;5065836;28;20227;-68
2022/09/01 00:09:47;;;;;;;9.80;8.63;;;;;;;;;;5065884;28;20197;-68
2022/09/01 00:12:13;;;;;;;12.60;8.68;;;;;;;;;;5065937;28;20193;-68
2022/09/01 00:14:40;;;;;;;11.60;9.35;;;;;;;;;;5065906;28;20201;-68
2022/09/01 00:17:09;;;;;;;13.57;9.40;;;;;;;;;;5065702;28;20197;-68
2022/09/01 00:19:38;;;;;;;12.13;8.57;;;;;;;;;;5065346;28;20210;-68
2022/09/01 00:22:04;;;;;;;10.63;8.60;;;;;;;;;;5065887;28;20594;-68
2022/09/01 00:24:31;;;;;;;9.43;8.73;;;;;;;;;;5065793;28;20201;-68
2022/09/01 00:26:57;;;;;;;10.52;9.48;;;;;;;;;;5065650;28;20224;-68
2022/09/01 00:29:24;;;;;;;10.48;9.10;;;;;;;;;;5065192;28;20197;-68
2022/09/01 00:31:51;;;;;;;10.02;9.07;;;;;;;;;;5065413;28;20208;-68
2022/09/01 00:34:18;;;;;;;11.23;9.00;;;;;;;;;;5065368;28;20205;-68
2022/09/01 00:36:46;;;;;;;12.35;8.60;;;;;;;;;;5065502;28;20428;-68
2022/09/01 00:39:13;;;;;;;9.45;8.65;;;;;;;;;;5065039;28;20197;-68
2022/09/01 00:41:41;;;;;;;14.02;9.30;;;;;;;;;;5065277;28;20217;-68
2022/09/01 00:44:10;;;;;;;9.25;8.07;;;;;;;;;;5065331;28;20264;-68
2022/09/01 00:46:37;;;;;;;9.77;8.88;;;;;;;;;;5065206;28;20232;-68
2022/09/01 00:49:07;;;;;;;12.70;9.50;;;;;;;;;;5064916;28;20197;-68
2022/09/01 00:51:36;;;;;;;11.23;8.50;;;;;;;;;;5065495;28;20215;-68
2022/09/01 00:54:05;;;;;;;10.30;9.30;;;;;;;;;;5065147;28;20201;-68
2022/09/01 00:56:32;;;;;;;15.32;8.95;;;;;;;;;;5064584;28;20393;-68
2022/09/01 00:58:59;;;;;;;9.95;8.90;;;;;;;;;;5063606;28;20197;-68
2022/09/01 01:01:26;;;;;;;10.10;9.23;;;;;;;;;;5063581;28;20219;-68
2022/09/01 01:03:52;;;;;;;9.95;9.10;;;;;;;;;;5064055;28;20200;-68
2022/09/01 01:06:22;;;;;;;9.30;8.40;;;;;;;;;;5063767;28;20271;-68
2022/09/01 01:08:56;;;;;;;9.65;8.90;;;;;;;;;;5062845;28;20220;-68
2022/09/01 01:11:25;;;;;;;10.10;9.20;;;;;;;;;;5063674;28;20224;-68
2022/09/01 01:13:57;;;;;;;12.13;9.25;;;;;;;;;;5063377;28;20197;-68
2022/09/01 01:16:24;;;;;;;11.00;9.52;;;;;;;;;;5063183;28;20197;-68
2022/09/01 01:18:51;;;;;;;11.43;10.23;;;;;;;;;;5063210;28;20243;-68
2022/09/01 01:24:09;;;;;;;11.52;9.55;;;;;;;;;;5063283;28;20243;-68
2022/09/01 01:26:37;;;;;;;10.43;9.52;;;;;;;;;;5063306;28;20519;-68
2022/09/01 01:29:03;;;;;;;10.48;9.20;;;;;;;;;;5063049;28;20211;-68
2022/09/01 01:31:31;;;;;;;10.52;9.52;;;;;;;;;;5063198;28;20197;-68
2022/09/01 01:33:58;;;;;;;11.73;10.52;;;;;;;;;;5062842;28;20197;-68
2022/09/01 01:36:31;;;;;;;11.82;9.20;;;;;;;;;;5063329;28;20227;-68
2022/09/01 01:39:00;;;;;;;9.68;8.77;;;;;;;;;;5062986;28;20428;-68
2022/09/01 01:41:28;;;;;;;9.35;8.65;;;;;;;;;;5062948;28;20193;-68
2022/09/01 01:43:57;;;;;;;10.52;9.45;;;;;;;;;;5062961;28;20243;-68
2022/09/01 01:46:24;;;;;;;14.23;9.90;;;;;;;;;;5062990;28;20200;-68
2022/09/01 01:48:52;;;;;;;10.93;9.88;;;;;;;;;;5062710;28;20200;-68
2022/09/01 01:51:20;;;;;;;11.15;10.02;;;;;;;;;;5062927;28;20203;-68
2022/09/01 01:53:46;;;;;;;10.65;9.85;;;;;;;;;;5062893;28;20595;-68
2022/09/01 01:56:12;;;;;;;10.38;9.18;;;;;;;;;;5026903;28;1029674;-68
2022/09/01 01:58:39;;;;;;;11.10;9.13;;;;;;;;;;5063737;28;20243;-68
2022/09/01 02:01:09;;;;;;;10.90;9.88;;;;;;;;;;5063675;28;20212;-68
2022/09/01 02:03:37;;;;;;;15.77;9.25;;;;;;;;;;5063620;28;20266;-68
2022/09/01 02:06:06;;;;;;;13.40;9.45;;;;;;;;;;5063781;28;20583;-68
2022/09/01 02:08:34;;;;;;;11.60;8.65;;;;;;;;;;5063624;28;20193;-68
2022/09/01 02:11:01;;;;;;;13.15;8.75;;;;;;;;;;5063523;28;20205;-68
2022/09/01 02:13:29;;;;;;;12.73;9.98;;;;;;;;;;5063673;28;20231;-68
2022/09/01 02:15:56;;;;;;;13.05;9.65;;;;;;;;;;5063650;28;20272;-68
2022/09/01 02:18:26;;;;;;;11.30;9.80;;;;;;;;;;5063558;28;20201;-68
2022/09/01 02:20:53;;;;;;;11.25;10.00;;;;;;;;;;5063241;28;20197;-68
2022/09/01 02:23:22;;;;;;;13.20;10.15;;;;;;;;;;5063347;28;20359;-68
2022/09/01 02:25:49;;;;;;;12.68;9.52;;;;;;;;;;5063247;28;20225;-68
2022/09/01 02:28:17;;;;;;;11.48;10.38;;;;;;;;;;5062619;28;20204;-68
2022/09/01 02:30:43;;;;;;;13.00;10.63;;;;;;;;;;5062979;28;20204;-68
2022/09/01 02:33:10;;;;;;;16.10;9.30;;;;;;;;;;5063194;28;20555;-68
2022/09/01 02:35:38;;;;;;;12.57;9.88;;;;;;;;;;5063145;28;20201;-68
2022/09/01 02:38:05;;;;;;;11.60;9.95;;;;;;;;;;5063099;28;20216;-68
2022/09/01 02:40:31;;;;;;;15.85;9.65;;;;;;;;;;5062817;28;20201;-68
2022/09/01 02:42:58;;;;;;;12.32;9.88;;;;;;;;;;5062907;28;20544;-68
2022/09/01 02:45:25;;;;;;;11.35;9.90;;;;;;;;;;5062943;28;20268;-68
2022/09/01 02:47:52;;;;;;;11.57;10.10;;;;;;;;;;5062899;28;20197;-68
2022/09/01 02:50:19;;;;;;;10.57;9.55;;;;;;;;;;5062659;28;20261;-68
2022/09/01 02:52:48;;;;;;;10.82;9.73;;;;;;;;;;5062831;28;20230;-68
2022/09/01 02:55:20;;;;;;;10.73;9.73;;;;;;;;;;5062759;28;20198;-68
2022/09/01 02:57:47;;;;;;;11.07;9.73;;;;;;;;;;5062649;28;20243;-68
2022/09/01 03:00:21;;;;;;;16.90;9.90;;;;;;;;;;5062485;28;20204;-68
2022/09/01 03:02:50;;;;;;;10.80;9.75;;;;;;;;;;5062478;28;20216;-68
2022/09/01 03:05:24;;;;;;;11.07;9.98;;;;;;;;;;5062668;28;20558;-68
2022/09/01 03:07:55;;;;;;;12.25;9.52;;;;;;;;;;5062564;28;20204;-68
2022/09/01 03:10:23;;;;;;;10.43;9.52;;;;;;;;;;5062251;28;20311;-68
2022/09/01 03:12:49;;;;;;;10.80;9.77;;;;;;;;;;5062450;28;20200;-68
2022/09/01 03:15:15;;;;;;;11.30;9.95;;;;;;;;;;5062347;28;20543;-68
2022/09/01 03:17:42;;;;;;;10.93;9.38;;;;;;;;;;5062929;28;20527;-68
2022/09/01 03:20:08;;;;;;;12.18;10.45;;;;;;;;;;5062146;28;20505;-68
2022/09/01 03:22:34;;;;;;;12.20;11.00;;;;;;;;;;5062286;28;20217;-68
2022/09/01 03:25:03;;;;;;;11.98;10.48;;;;;;;;;;5062325;28;20242;-67
2022/09/01 03:27:29;;;;;;;13.68;10.88;;;;;;;;;;5062128;28;20251;-67
2022/09/01 03:29:55;;;;;;;15.07;11.48;;;;;;;;;;5062139;28;20205;-67
2022/09/01 03:32:22;;;;;;;12.73;11.43;;;;;;;;;;5062339;28;20193;-68
2022/09/01 03:34:50;;;;;;;15.55;12.13;;;;;;;;;;5062416;28;20242;-68
2022/09/01 03:37:16;;;;;;;12.95;11.65;;;;;;;;;;5062232;28;20205;-68
2022/09/01 03:39:42;;;;;;;14.60;11.82;;;;;;;;;;5061835;28;20201;-68
2022/09/01 03:42:11;;;;;;;13.00;11.68;;;;;;;;;;5061871;28;20243;-68
2022/09/01 03:44:39;;;;;;;13.02;11.05;;;;;;;;;;5062235;28;20215;-68
2022/09/01 03:47:09;;;;;;;12.82;11.35;;;;;;;;;;5062172;28;20435;-68
2022/09/01 03:49:35;;;;;;;17.27;12.13;;;;;;;;;;5061968;28;20185;-67
2022/09/01 03:52:02;;;;;;;14.00;11.45;;;;;;;;;;5062016;28;20197;-67
2022/09/01 03:54:29;;;;;;;12.45;11.25;;;;;;;;;;5061925;28;20193;-67
2022/09/01 03:56:58;;;;;;;11.60;10.60;;;;;;;;;;5061723;28;20205;-67
2022/09/01 03:59:28;;;;;;;13.30;11.90;;;;;;;;;;5061820;28;20493;-67
2022/09/01 04:01:57;;;;;;;15.52;11.82;;;;;;;;;;5061739;28;20219;-67
2022/09/01 04:04:24;;;;;;;13.50;11.45;;;;;;;;;;5061876;28;20278;-67
2022/09/01 04:06:51;;;;;;;13.70;11.27;;;;;;;;;;5061922;28;20197;-67
2022/09/01 04:09:17;;;;;;;14.80;11.23;;;;;;;;;;5061959;28;20208;-67
2022/09/01 04:11:45;;;;;;;15.15;12.00;;;;;;;;;;5061889;28;20204;-67
2022/09/01 04:14:11;;;;;;;13.70;12.38;;;;;;;;;;5061887;28;20193;-67
2022/09/01 04:19:25;;;;;;;12.88;11.70;;;;;;;;;;5061518;28;20459;-67
2022/09/01 04:21:52;;;;;;;13.23;11.98;;;;;;;;;;5061551;28;20437;-66
2022/09/01 04:24:19;;;;;;;14.73;11.38;;;;;;;;;;5061756;28;20263;-66
2022/09/01 04:26:47;;;;;;;14.38;12.93;;;;;;;;;;5061762;28;20201;-66
2022/09/01 04:29:14;;;;;;;13.40;12.10;;;;;;;;;;5061415;28;20204;-66
2022/09/01 04:31:41;;;;;;;13.48;12.07;;;;;;;;;;5061584;28;20205;-66
2022/09/01 04:34:10;;;;;;;13.90;12.45;;;;;;;;;;5061504;28;20193;-66
2022/09/01 04:36:40;;;;;;;14.60;12.43;;;;;;;;;;5061620;28;20204;-66
2022/09/01 04:39:08;;;;;;;20.80;13.30;;;;;;;;;;5061567;28;20232;-66
2022/09/01 04:41:36;;;;;;;13.75;12.45;;;;;;;;;;5061586;28;20197;-66
2022/09/01 04:44:03;;;;;;;13.25;11.95;;;;;;;;;;5061481;28;20416;-66
2022/09/01 04:46:31;;;;;;;17.63;12.80;;;;;;;;;;5061509;28;20197;-66
2022/09/01 04:49:00;;;;;;;14.13;12.75;;;;;;;;;;5061038;28;20204;-66
2022/09/01 04:51:26;;;;;;;14.20;12.85;;;;;;;;;;5064308;28;20205;-66
2022/09/01 04:53:53;;;;;;;16.67;12.88;;;;;;;;;;5065245;28;20199;-66
2022/09/01 04:56:21;;;;;;;14.50;12.25;;;;;;;;;;5064865;28;20403;-66
2022/09/01 04:58:48;;;;;;;15.32;13.82;;;;;;;;;;5064722;28;20224;-66
2022/09/01 05:01:14;;;;;;;15.30;13.70;;;;;;;;;;5064679;28;20202;-66
2022/09/01 05:03:41;;;;;;;15.43;13.35;;;;;;;;;;5064971;28;20224;-67
2022/09/01 05:06:14;;;;;;;16.33;14.68;;;;;;;;;;5064529;28;20216;-67
2022/09/01 05:08:40;;;;;;;15.20;13.80;;;;;;;;;;5064925;28;20201;-67
2022/09/01 05:11:08;;;;;;;15.43;13.93;;;;;;;;;;5064418;28;20196;-67
2022/09/01 05:13:37;;;;;;;14.55;13.13;;;;;;;;;;5064537;28;20193;-67
2022/09/01 05:16:06;;;;;;;21.75;13.93;;;;;;;;;;5064463;28;20200;-66
2022/09/01 05:18:32;;;;;;;15.35;13.75;;;;;;;;;;5064747;28;20243;-66
2022/09/01 05:21:08;;;;;;;15.48;13.27;;;;;;;;;;5064527;28;20197;-66
2022/09/01 05:23:36;;;;;;;17.08;14.18;;;;;;;;;;5064495;28;20227;-66
2022/09/01 05:26:06;;;;;;;14.57;13.18;;;;;;;;;;5064270;28;20395;-66
2022/09/01 05:28:32;;;;;;;16.75;14.55;;;;;;;;;;5064256;28;20197;-67
2022/09/01 05:31:00;;;;;;;16.88;15.32;;;;;;;;;;5064290;28;20197;-67
2022/09/01 05:33:27;;;;;;;15.80;13.98;;;;;;;;;;5064516;28;20231;-67
2022/09/01 05:35:54;;;;;;;19.27;14.80;;;;;;;;;;5064316;28;20220;-67
2022/09/01 05:38:20;;;;;;;16.95;15.35;;;;;;;;;;5064557;28;20201;-67
2022/09/01 05:40:56;;;;;;;16.58;14.82;;;;;;;;;;5063768;28;20204;-62
2022/09/01 05:43:26;;;;;;;21.13;17.13;;;;;;;;;;5047716;28;20559;-62
2022/09/01 05:45:53;;;;;;;26.13;17.20;;;;;;;;;;5054300;28;20285;-61
2022/09/01 05:48:20;;;;;;;20.98;16.77;;;;;;;;;;5047962;28;20216;-61
2022/09/01 05:50:48;;;;;;;23.42;17.10;;;;;;;;;;5057991;28;20220;-61
2022/09/01 05:53:16;;;;;;;20.25;17.33;;;;;;;;;;5050028;28;20205;-60
2022/09/01 05:55:43;;;;;;;21.38;19.08;;;;;;;;;;5055230;28;20213;-60
2022/09/01 05:58:12;;;;;;;22.00;15.80;;;;;;;;;;5057562;28;20414;-61
2022/09/01 06:00:39;;;;;;;18.90;16.65;;;;;;;;;;5054337;28;20210;-60
2022/09/01 06:03:06;;;;;;;29.63;21.60;;;;;;;;;;5036362;28;20236;-60
2022/09/01 06:05:34;;;;;;;25.63;19.60;;;;;;;;;;5035992;28;20249;-61
2022/09/01 06:08:01;;;;;;;26.40;20.90;;;;;;;;;;5037692;28;20280;-61
2022/09/01 06:10:28;;;;;;;26.90;21.10;;;;;;;;;;5037172;28;20210;-61
2022/09/01 06:12:55;;;;;;;25.02;21.05;;;;;;;;;;5037852;28;20324;-60
2022/09/01 06:15:23;;;;;;;24.23;21.30;;;;;;;;;;5036104;28;20212;-60
2022/09/01 06:17:49;;;;;;;22.52;20.23;;;;;;;;;;5037996;28;20251;-61
2022/09/01 06:20:17;;;;;;;23.85;19.60;;;;;;;;;;5036971;28;20214;-60
2022/09/01 06:22:44;;;;;;;24.00;19.52;;;;;;;;;;5036006;28;20252;-60
2022/09/01 06:25:10;;;;;;;21.25;19.02;;;;;;;;;;5047403;28;20393;-61
2022/09/01 06:27:43;;;;;;;26.33;21.70;;;;;;;;;;5056052;28;20213;-61
2022/09/01 06:30:13;;;;;;;22.65;20.05;;;;;;;;;;5056429;28;20409;-61
2022/09/01 06:32:42;;;;;;;25.25;20.50;;;;;;;;;;5056261;28;20263;-62
2022/09/01 06:35:10;;;;;;;28.85;22.30;;;;;;;;;;5055712;28;20385;-62
2022/09/01 06:37:37;;;;;;;24.73;20.40;;;;;;;;;;5041018;28;20209;-61
2022/09/01 06:40:03;;;;;;;24.33;21.08;;;;;;;;;;5036576;28;20206;-62
2022/09/01 06:42:33;;;;;;;24.38;20.48;;;;;;;;;;5043937;28;20229;-62
2022/09/01 06:45:00;;;;;;;26.65;21.35;;;;;;;;;;5055437;28;20283;-61
2022/09/01 06:47:27;;;;;;;24.45;20.90;;;;;;;;;;5055875;28;20217;-62
2022/09/01 06:49:58;;;;;;;23.45;20.88;;;;;;;;;;5056424;28;20217;-62
2022/09/01 06:52:24;;;;;;;25.75;19.30;;;;;;;;;;5055928;28;20516;-61
2022/09/01 06:54:53;;;;;;;24.40;20.13;;;;;;;;;;5056156;28;20213;-61
2022/09/01 06:57:20;;;;;;;22.23;18.63;;;;;;;;;;5055885;28;20293;-62
2022/09/01 06:59:46;;;;;;;22.52;18.98;;;;;;;;;;5056997;28;20441;-61
2022/09/01 07:02:15;;;;;;;20.48;17.73;;;;;;;;;;5055724;28;20235;-62
2022/09/01 07:04:42;;;;;;;20.55;17.60;;;;;;;;;;5055355;28;20224;-61
2022/09/01 07:07:10;;;;;;;20.00;17.23;;;;;;;;;;5045458;28;20308;-62
2022/09/01 07:09:37;;;;;;;17.35;15.50;;;;;;;;;;5035759;28;20218;-61
2022/09/01 07:12:03;;;;;;;18.23;15.98;;;;;;;;;;5035833;28;20364;-62
2022/09/01 07:14:29;;;;;;;19.73;16.02;;;;;;;;;;5034886;28;20287;-61
2022/09/01 07:16:57;;;;;;;18.70;15.70;;;;;;;;;;5035414;28;20420;-61
2022/09/01 07:19:24;;;;;;;16.65;14.50;;;;;;;;;;5035253;28;20219;-61
2022/09/01 07:21:51;;;;;;;17.08;14.90;;;;;;;;;;5036527;28;20220;-60
2022/09/01 07:24:19;;;;;;;16.10;14.43;;;;;;;;;;5035268;28;20470;-61
2022/09/01 07:26:51;;;;;;;15.90;14.23;;;;;;;;;;5036262;28;20255;-61
2022/09/01 07:29:20;;;;;;;16.65;14.90;;;;;;;;;;5046503;28;20275;-61
2022/09/01 07:31:47;;;;;;;17.55;15.10;;;;;;;;;;5036032;28;20473;-61
2022/09/01 07:34:13;;;;;;;15.50;14.00;;;;;;;;;;5035719;28;20210;-61
2022/09/01 07:36:41;;;;;;;16.00;14.30;;;;;;;;;;5036133;28;20252;-61
2022/09/01 07:39:08;;;;;;;16.08;14.45;;;;;;;;;;5035354;28;20268;-61
2022/09/01 07:41:37;;;;;;;16.50;14.50;;;;;;;;;;5036636;28;20217;-61
2022/09/01 07:44:04;;;;;;;15.00;13.43;;;;;;;;;;5035788;28;20518;-62
2022/09/01 07:46:31;;;;;;;17.25;13.25;;;;;;;;;;5049298;28;20279;-60
2022/09/01 07:48:58;;;;;;;14.73;12.95;;;;;;;;;;5055670;28;20213;-61
2022/09/01 07:51:25;;;;;;;14.35;13.05;;;;;;;;;;5055215;28;20209;-62
2022/09/01 07:53:51;;;;;;;14.75;13.20;;;;;;;;;;5055585;28;20231;-62
2022/09/01 07:56:19;;;;;;;12.82;11.52;;;;;;;;;;5056294;28;20223;-62
2022/09/01 07:58:47;;;;;;;13.70;12.15;;;;;;;;;;5055050;28;20511;-62
2022/09/01 08:01:17;;;;;;;10.52;9.63;;;;;;;;;;5055109;28;20212;-62
2022/09/01 08:03:44;;;;;;;11.40;10.20;;;;;;;;;;5055049;28;20252;-63
2022/09/01 08:06:12;;;;;;;11.48;10.25;;;;;;;;;;5054917;28;20268;-62
2022/09/01 08:08:39;;;;;;;13.15;11.48;;;;;;;;;;5055508;28;20213;-61
2022/09/01 08:11:06;;;;;;;11.85;10.65;;;;;;;;;;5054154;28;20219;-61
2022/09/01 08:13:32;;;;;;;13.00;11.57;;;;;;;;;;5055245;28;20213;-62
2022/09/01 08:16:02;;;;;;;11.52;10.40;;;;;;;;;;5056301;28;20209;-62
2022/09/01 08:18:29;;;;;;;10.38;9.35;;;;;;;;;;5055528;28;20254;-63
2022/09/01 08:20:55;;;;;;;10.10;9.13;;;;;;;;;;5054691;28;20212;-62
2022/09/01 08:23:25;;;;;;;8.82;7.90;;;;;;;;;;5055097;28;20212;-61
2022/09/01 08:25:51;;;;;;;8.60;7.80;;;;;;;;;;5057173;28;20263;-62
2022/09/01 08:28:18;;;;;;;9.52;8.60;;;;;;;;;;5059408;28;20213;-62
2022/09/01 08:30:45;;;;;;;8.55;7.65;;;;;;;;;;5058840;28;20213;-62
2022/09/01 08:33:12;;;;;;;7.75;7.22;;;;;;;;;;5058239;28;20205;-62
2022/09/01 08:35:40;;;;;;;7.75;7.15;;;;;;;;;;5048139;28;20217;-62
2022/09/01 08:38:06;;;;;;;7.70;7.00;;;;;;;;;;5039085;28;20214;-62
2022/09/01 08:40:32;;;;;;;7.82;7.22;;;;;;;;;;5038465;28;20224;-61
2022/09/01 08:43:06;;;;;;;8.45;7.75;;;;;;;;;;5038518;28;20244;-62
2022/09/01 08:45:36;;;;;;;7.47;6.82;;;;;;;;;;5038987;28;20248;-61
2022/09/01 08:48:06;;;;;;;7.20;6.57;;;;;;;;;;5038880;28;20525;-61
2022/09/01 08:50:34;;;;;;;7.65;6.85;;;;;;;;;;5038536;28;20214;-62
2022/09/01 08:53:04;;;;;;;7.28;6.57;;;;;;;;;;5037694;28;20217;-61
2022/09/01 08:55:34;;;;;;;6.65;6.20;;;;;;;;;;5038898;28;20205;-61
2022/09/01 08:58:03;;;;;;;6.70;6.10;;;;;;;;;;5039101;28;20229;-61
2022/09/01 09:00:34;;;;;;;8.02;7.32;;;;;;;;;;5043473;28;20213;-61
2022/09/01 09:03:06;;;;;;;9.95;6.97;;;;;;;;;;5057335;28;20213;-61
2022/09/01 09:05:38;;;;;;;7.20;6.68;;;;;;;;;;5058506;28;20237;-61
2022/09/01 09:08:25;;;;;;;7.25;5.97;;;;;;;;;;5058420;28;20489;-61
2022/09/01 09:10:55;;;;;;;8.07;7.38;;;;;;;;;;5058168;28;20213;-62
2022/09/01 09:13:23;;;;;;;6.93;6.20;;;;;;;;;;5057990;28;20533;-61
2022/09/01 09:15:51;;;;;;;6.40;5.90;;;;;;;;;;5058693;28;20201;-62
2022/09/01 09:18:22;;;;;;;6.97;6.38;;;;;;;;;;5058474;28;20647;-63
2022/09/01 09:20:50;;;;;;;5.10;4.80;;;;;;;;;;5058710;28;20282;-63
2022/09/01 09:23:25;;;;;;;5.55;5.18;;;;;;;;;;5058406;28;20220;-63
2022/09/01 09:25:51;;;;;;;4.65;4.45;;;;;;;;;;5057649;28;20228;-63
2022/09/01 09:28:18;;;;;;;4.93;4.63;;;;;;;;;;5058514;28;20213;-63
2022/09/01 09:30:44;;;;;;;3.78;3.58;;;;;;;;;;5057927;28;20235;-61
2022/09/01 09:33:30;;;;;;;5.47;3.97;;;;;;;;;;5057338;28;20220;-61
2022/09/01 09:36:15;;;;;;;5.25;4.68;;;;;;;;;;5057369;28;20209;-62
2022/09/01 09:38:41;;;;;;;4.10;3.90;;;;;;;;;;5047305;28;20218;-62
2022/09/01 09:41:08;;;;;;;3.72;3.60;;;;;;;;;;5037626;28;20612;-62
2022/09/01 09:43:36;;;;;;;3.72;3.63;;;;;;;;;;5037337;28;20553;-61
2022/09/01 09:46:23;;;;;;;3.72;3.50;;;;;;;;;;5037691;28;20236;-62
2022/09/01 09:49:05;;;;;;;4.00;3.80;;;;;;;;;;5037735;28;20260;-62
2022/09/01 09:51:33;;;;;;;3.95;3.75;;;;;;;;;;5037580;28;20410;-62
2022/09/01 09:54:10;;;;;;;4.65;4.10;;;;;;;;;;5037643;28;20213;-62
2022/09/01 09:56:36;;;;;;;4.40;4.00;;;;;;;;;;5042125;28;20217;-61
2022/09/01 09:59:16;;;;;;;3.53;3.33;;;;;;;;;;5057788;28;20213;-62
2022/09/01 10:01:42;;;;;;;4.53;4.13;;;;;;;;;;5057420;28;20217;-62
2022/09/01 10:04:08;;;;;;;4.07;3.65;;;;;;;;;;5057517;28;20213;-62
2022/09/01 10:06:37;;;;;;;4.03;3.70;;;;;;;;;;5057082;28;20267;-62
2022/09/01 10:09:04;;;;;;;3.65;3.50;;;;;;;;;;5057726;28;20397;-61
2022/09/01 10:11:36;;;;;;;4.30;3.50;;;;;;;;;;5057756;28;20461;-61
2022/09/01 10:14:05;;;;;;;7.57;6.80;;;;;;;;;;5056330;28;20580;-62
2022/09/01 10:16:32;;;;;;;4.85;3.63;;;;;;;;;;5056553;28;20209;-61
2022/09/01 10:19:00;;;;;;;3.92;3.72;;;;;;;;;;5057633;28;20216;-61
2022/09/01 10:21:30;;;;;;;7.18;6.57;;;;;;;;;;5056877;28;20279;-62
2022/09/01 10:23:58;;;;;;;5.25;4.13;;;;;;;;;;5056445;28;20435;-62
2022/09/01 10:26:27;;;;;;;3.50;3.30;;;;;;;;;;5056863;28;20228;-62
2022/09/01 10:28:55;;;;;;;3.22;3.03;;;;;;;;;;5039677;28;20216;-62
2022/09/01 10:31:22;;;;;;;5.30;4.88;;;;;;;;;;5036744;28;20414;-60
2022/09/01 10:33:49;;;;;;;3.42;3.13;;;;;;;;;;5036784;28;20424;-64
2022/09/01 10:36:16;;;;;;;3.10;2.97;;;;;;;;;;5037081;28;20280;-63
2022/09/01 10:38:43;;;;;;;3.83;3.50;;;;;;;;;;5036400;28;20213;-63
2022/09/01 10:41:32;;;;;;;3.20;3.00;;;;;;;;;;5036810;28;20504;-62
2022/09/01 10:44:09;;;;;;;4.82;3.00;;;;;;;;;;5036401;28;20390;-63
2022/09/01 10:46:47;;;;;;;3.20;3.00;;;;;;;;;;5036408;28;20447;-63
2022/09/01 10:49:22;;;;;;;3.80;3.50;;;;;;;;;;5035353;28;20213;-62
2022/09/01 10:51:49;;;;;;;3.10;2.80;;;;;;;;;;5036817;28;20220;-63
2022/09/01 10:54:40;;;;;;;3.67;3.47;;;;;;;;;;5036263;28;20255;-63
2022/09/01 10:57:10;;;;;;;2.85;2.75;;;;;;;;;;5025550;28;20409;-62
2022/09/01 10:59:37;;;;;;;3.70;3.50;;;;;;;;;;5036284;28;20221;-62
2022/09/01 11:02:08;;;;;;;3.67;3.45;;;;;;;;;;5036328;28;20466;-62
2022/09/01 11:04:53;;;;;;;3.05;2.95;;;;;;;;;;5049153;28;20235;-61
2022/09/01 11:07:32;;;;;;;2.75;2.63;;;;;;;;;;5056392;28;20212;-62
2022/09/01 11:10:12;;;;;;;5.15;4.75;;;;;;;;;;5055610;28;20444;-62
2022/09/01 11:12:44;;;;;;;3.47;3.38;;;;;;;;;;5056198;28;20516;-61
2022/09/01 11:15:41;;;;;;;3.40;3.00;;;;;;;;;;5055463;28;20219;-61
2022/09/01 11:18:09;;;;;;;3.40;3.20;;;;;;;;;;5013673;28;20210;-62
2022/09/01 11:20:36;;;;;;;3.28;3.13;;;;;;;;;;5045522;28;20213;-62
2022/09/01 11:23:04;;;;;;;3.40;3.20;;;;;;;;;;5056005;28;20212;-62
2022/09/01 11:25:33;;;;;;;3.00;2.90;;;;;;;;;;5041930;28;20236;-62
2022/09/01 11:28:05;;;;;;;5.75;2.92;;;;;;;;;;5036233;28;20219;-62
2022/09/01 11:30:34;;;;;;;2.97;2.88;;;;;;;;;;5035192;28;20213;-62
2022/09/01 11:33:04;;;;;;;3.10;2.92;;;;;;;;;;5035907;28;20213;-62
2022/09/01 11:35:31;;;;;;;2.72;2.63;;;;;;;;;;5036260;28;20216;-63
2022/09/01 11:38:03;;;;;;;3.30;3.10;;;;;;;;;;5041557;28;20279;-61
2022/09/01 11:40:29;;;;;;;2.92;2.80;;;;;;;;;;5054820;28;20212;-61
2022/09/01 11:42:57;;;;;;;2.70;2.60;;;;;;;;;;5056298;28;20442;-62
2022/09/01 11:45:27;;;;;;;2.50;2.45;;;;;;;;;;5050516;28;20260;-62
2022/09/01 11:47:55;;;;;;;3.15;2.83;;;;;;;;;;5035466;28;20227;-62
2022/09/01 11:50:23;;;;;;;3.95;2.83;;;;;;;;;;5035666;28;20529;-62
2022/09/01 11:52:53;;;;;;;2.75;2.53;;;;;;;;;;5035232;28;20217;-62
2022/09/01 11:55:28;;;;;;;2.92;2.55;;;;;;;;;;5036104;28;20209;-62
2022/09/01 11:57:54;;;;;;;3.10;2.95;;;;;;;;;;5036718;28;20220;-62
2022/09/01 12:00:27;;;;;;;3.00;2.80;;;;;;;;;;5038335;28;20217;-62
2022/09/01 12:02:53;;;;;;;3.05;2.85;;;;;;;;;;5039369;28;20251;-62
2022/09/01 12:05:26;;;;;;;2.40;2.30;;;;;;;;;;5047813;28;20232;-63
2022/09/01 12:07:52;;;;;;;2.80;2.47;;;;;;;;;;5059484;28;20212;-63
2022/09/01 12:10:20;;;;;;;2.75;2.65;;;;;;;;;;5058341;28;20417;-62
2022/09/01 12:12:46;;;;;;;2.65;2.45;;;;;;;;;;5058726;28;20216;-63
2022/09/01 12:15:17;;;;;;;2.65;2.50;;;;;;;;;;5059767;28;20208;-62
2022/09/01 12:17:45;;;;;;;2.55;2.40;;;;;;;;;;5059873;28;20220;-63
2022/09/01 12:20:22;;;;;;;2.88;2.78;;;;;;;;;;5059511;28;20216;-63
2022/09/01 12:22:48;;;;;;;3.60;3.03;;;;;;;;;;5058444;28;20242;-63
2022/09/01 12:25:19;;;;;;;2.88;2.78;;;;;;;;;;5059836;28;20224;-62
2022/09/01 12:27:45;;;;;;;2.78;2.58;;;;;;;;;;5059413;28;20434;-61
2022/09/01 12:30:12;;;;;;;2.85;2.75;;;;;;;;;;5059073;28;20216;-62
2022/09/01 12:32:38;;;;;;;3.13;2.92;;;;;;;;;;5059551;28;20220;-61
2022/09/01 12:35:14;;;;;;;2.88;2.78;;;;;;;;;;5058692;28;20770;-62
2022/09/01 12:37:40;;;;;;;2.70;2.60;;;;;;;;;;5043653;28;20215;-62
2022/09/01 12:40:20;;;;;;;2.67;2.30;;;;;;;;;;5039498;28;20217;-62
2022/09/01 12:42:50;;;;;;;2.67;2.58;;;;;;;;;;5046731;28;20212;-62
2022/09/01 12:45:35;;;;;;;2.55;2.45;;;;;;;;;;5058118;28;20602;-62
2022/09/01 12:48:01;;;;;;;4.97;2.60;;;;;;;;;;5058624;28;20432;-62
2022/09/01 12:50:41;;;;;;;2.33;2.20;;;;;;;;;;5058885;28;20225;-62
2022/09/01 12:53:14;;;;;;;3.47;2.30;;;;;;;;;;5039657;28;20452;-69
2022/09/01 12:55:40;;;;;;;2.22;2.22;;;;;;;;;;5038448;28;20216;-69
2022/09/01 12:58:08;;;;;;;2.78;2.60;;;;;;;;;;5039105;28;20537;-69
2022/09/01 13:00:35;;;;;;;3.05;2.22;;;;;;;;;;5038392;28;20213;-69
2022/09/01 13:03:06;;;;;;;2.55;2.45;;;;;;;;;;5038034;28;20213;-69
2022/09/01 13:05:33;;;;;;;2.42;2.33;;;;;;;;;;5047906;28;20243;-69
2022/09/01 13:08:02;;;;;;;2.67;2.58;;;;;;;;;;5059054;28;20230;-68
2022/09/01 13:10:31;;;;;;;2.20;2.10;;;;;;;;;;5058032;28;20327;-68
2022/09/01 13:12:57;;;;;;;2.30;2.30;;;;;;;;;;5058155;28;20416;-68
2022/09/01 13:15:24;;;;;;;2.50;2.40;;;;;;;;;;5052030;28;20271;-68
2022/09/01 13:17:50;;;;;;;2.30;2.20;;;;;;;;;;5039332;28;20256;-68
2022/09/01 13:20:17;;;;;;;3.08;2.70;;;;;;;;;;5045982;28;20219;-68
2022/09/01 13:22:43;;;;;;;2.95;2.63;;;;;;;;;;5058304;28;20790;-68
2022/09/01 13:25:12;;;;;;;2.95;2.60;;;;;;;;;;5058345;28;20288;-68
2022/09/01 13:27:42;;;;;;;2.58;2.08;;;;;;;;;;5057025;28;20244;-68
2022/09/01 13:30:10;;;;;;;2.58;2.40;;;;;;;;;;5057528;28;20235;-68
2022/09/01 13:32:36;;;;;;;3.40;2.10;;;;;;;;;;5058397;28;20212;-68
2022/09/01 13:35:03;;;;;;;3.03;2.17;;;;;;;;;;5057622;28;20213;-68
2022/09/01 13:37:29;;;;;;;2.85;2.22;;;;;;;;;;5044090;28;20536;-68
2022/09/01 13:39:56;;;;;;;2.60;2.50;;;;;;;;;;5038423;28;20217;-68
2022/09/01 13:42:23;;;;;;;2.42;2.33;;;;;;;;;;5037758;28;20217;-68
2022/09/01 13:44:50;;;;;;;3.00;2.72;;;;;;;;;;5038292;28;20217;-68
2022/09/01 13:47:16;;;;;;;2.30;2.20;;;;;;;;;;5046897;28;20246;-68
2022/09/01 13:49:42;;;;;;;2.30;2.30;;;;;;;;;;5057755;28;20205;-68
2022/09/01 13:52:08;;;;;;;2.42;2.33;;;;;;;;;;5058114;28;20282;-68
2022/09/01 13:54:35;;;;;;;2.95;2.85;;;;;;;;;;5057652;28;20311;-68
2022/09/01 13:57:01;;;;;;;4.22;2.50;;;;;;;;;;5056986;28;20220;-68
2022/09/01 13:59:29;;;;;;;3.38;2.33;;;;;;;;;;5058194;28;20516;-68
2022/09/01 14:01:56;;;;;;;2.40;2.30;;;;;;;;;;5052482;28;20213;-69
2022/09/01 14:04:22;;;;;;;2.42;2.28;;;;;;;;;;5036788;28;20263;-69
2022/09/01 14:06:48;;;;;;;2.67;2.20;;;;;;;;;;5037857;28;20237;-69
2022/09/01 14:09:15;;;;;;;2.08;2.00;;;;;;;;;;5037275;28;20560;-69
2022/09/01 14:11:41;;;;;;;2.58;2.28;;;;;;;;;;5037444;28;20216;-69
2022/09/01 14:14:07;;;;;;;2.13;2.03;;;;;;;;;;5036621;28;20209;-69
2022/09/01 14:16:35;;;;;;;2.47;1.88;;;;;;;;;;5036820;28;20444;-69
2022/09/01 14:19:01;;;;;;;1.85;1.77;;;;;;;;;;5037074;28;20217;-69
2022/09/01 14:21:27;;;;;;;1.88;1.85;;;;;;;;;;5036964;28;20220;-69
2022/09/01 14:23:54;;;;;;;1.90;1.80;;;;;;;;;;5034932;28;20217;-69
2022/09/01 14:26:21;;;;;;;1.67;1.58;;;;;;;;;;5036593;28;20247;-69
2022/09/01 14:28:48;;;;;;;4.53;1.85;;;;;;;;;;5035899;28;20251;-69
2022/09/01 14:31:15;;;;;;;2.15;1.52;;;;;;;;;;5037586;28;20217;-69
2022/09/01 14:33:42;;;;;;;4.40;1.60;;;;;;;;;;5036213;28;20520;-69
2022/09/01 14:36:15;;;;;;;1.55;1.55;;;;;;;;;;5036602;28;20201;-69
2022/09/01 14:38:41;;;;;;;2.08;1.83;;;;;;;;;;5048930;28;20254;-69
2022/09/01 14:41:08;;;;;;;1.85;1.83;;;;;;;;;;5044917;28;20205;-69
2022/09/01 14:43:34;;;;;;;2.50;1.90;;;;;;;;;;5047839;28;20556;-69
2022/09/01 14:46:05;;;;;;;1.80;1.80;;;;;;;;;;5051528;28;20228;-69